createdAt,value
2019-04-05T00:01:26.030Z,15.60
2019-04-05T00:03:59.683Z,15.60
2019-04-05T00:06:32.074Z,15.50
2019-04-05T00:09:05.718Z,15.37
2019-04-05T00:11:37.676Z,14.87
2019-04-05T00:14:10.018Z,14.97
2019-04-05T00:16:42.927Z,15.70
2019-04-05T00:19:15.963Z,14.70
2019-04-05T00:21:49.096Z,14.43
2019-04-05T00:24:21.266Z,15.47
2019-04-05T00:26:54.944Z,15.77
2019-04-05T00:29:27.892Z,15.43
2019-04-05T00:32:01.593Z,15.43
2019-04-05T00:34:38.104Z,15.30
2019-04-05T00:37:10.545Z,15.50
2019-04-05T00:39:42.500Z,14.33
2019-04-05T00:42:15.010Z,13.97
2019-04-05T00:44:47.281Z,13.97
2019-04-05T00:47:20.085Z,13.27
2019-04-05T00:49:54.346Z,14.93
2019-04-05T00:52:26.716Z,14.00
2019-04-05T00:55:00.381Z,13.63
2019-04-05T00:57:32.427Z,14.27
2019-04-05T01:00:06.261Z,13.47
2019-04-05T01:02:40.795Z,14.47
2019-04-05T01:05:13.757Z,13.40
2019-04-05T01:07:45.665Z,13.23
2019-04-05T01:10:18.828Z,13.47
2019-04-05T01:12:50.925Z,13.63
2019-04-05T01:15:23.996Z,13.27
2019-04-05T01:17:58.994Z,13.73
2019-04-05T01:20:36.402Z,13.00
2019-04-05T01:23:10.590Z,13.37
2019-04-05T01:25:43.365Z,13.47
2019-04-05T01:28:17.284Z,13.83
2019-04-05T01:30:50.030Z,13.20
2019-04-05T01:33:21.864Z,13.53
2019-04-05T01:35:55.310Z,14.03
2019-04-05T01:38:27.327Z,12.73
2019-04-05T01:41:01.142Z,13.30
2019-04-05T01:43:34.267Z,13.30
2019-04-05T01:46:07.447Z,12.93
2019-04-05T01:48:39.788Z,12.60
2019-04-05T01:51:12.150Z,13.77
2019-04-05T01:53:44.055Z,13.23
2019-04-05T01:56:17.276Z,13.40
2019-04-05T01:58:51.393Z,13.53
2019-04-05T02:01:24.311Z,13.40
2019-04-05T02:03:56.297Z,14.20
2019-04-05T02:06:30.581Z,14.20
2019-04-05T02:09:05.501Z,13.80
2019-04-05T02:11:38.148Z,13.87
2019-04-05T02:14:12.459Z,13.20
2019-04-05T02:16:44.765Z,14.00
2019-04-05T02:19:17.347Z,14.07
2019-04-05T02:21:49.240Z,14.60
2019-04-05T02:24:21.434Z,15.20
2019-04-05T02:26:53.425Z,14.90
2019-04-05T02:29:26.938Z,14.77
2019-04-05T02:31:59.063Z,15.33
2019-04-05T02:34:31.412Z,15.30
2019-04-05T02:37:05.164Z,15.37
2019-04-05T02:39:37.115Z,16.07
2019-04-05T02:42:10.921Z,15.77
2019-04-05T02:44:46.795Z,15.07
2019-04-05T02:47:20.486Z,15.43
2019-04-05T02:49:55.643Z,15.30
2019-04-05T02:52:29.071Z,16.03
2019-04-05T02:55:01.440Z,16.43
2019-04-05T02:57:35.460Z,16.63
2019-04-05T03:00:09.531Z,15.63
2019-04-05T03:02:43.135Z,16.67
2019-04-05T03:05:16.318Z,17.40
2019-04-05T03:07:48.459Z,16.87
2019-04-05T03:10:53.174Z,17.10
2019-04-05T03:13:27.160Z,17.07
2019-04-05T03:16:02.967Z,17.93
2019-04-05T03:18:37.680Z,17.60
2019-04-05T03:21:10.426Z,17.10
2019-04-05T03:23:46.565Z,17.80
2019-04-05T03:26:21.755Z,17.47
2019-04-05T03:29:01.779Z,16.60
2019-04-05T03:31:35.708Z,17.63
2019-04-05T03:34:11.764Z,17.33
2019-04-05T03:36:45.884Z,17.33
2019-04-05T03:39:20.107Z,17.60
2019-04-05T03:41:53.294Z,17.77
2019-04-05T03:44:41.010Z,17.07
2019-04-05T03:47:14.926Z,19.13
2019-04-05T03:49:47.711Z,18.63
2019-04-05T03:52:22.399Z,19.70
2019-04-05T03:54:54.632Z,18.60
2019-04-05T03:57:27.698Z,18.80
2019-04-05T04:00:03.336Z,19.70
2019-04-05T04:02:36.022Z,19.00
2019-04-05T04:05:11.050Z,19.17
2019-04-05T04:07:44.056Z,17.97
2019-04-05T04:10:18.090Z,19.20
2019-04-05T04:12:52.609Z,20.67
2019-04-05T04:15:27.357Z,19.87
2019-04-05T04:18:01.928Z,19.70
2019-04-05T04:20:45.644Z,19.97
2019-04-05T04:23:19.065Z,20.40
2019-04-05T04:25:52.678Z,20.07
2019-04-05T04:28:26.484Z,20.50
2019-04-05T04:31:02.122Z,19.03
2019-04-05T04:33:37.590Z,20.37
2019-04-05T04:36:19.291Z,19.53
2019-04-05T04:38:54.177Z,19.27
2019-04-05T04:41:31.740Z,19.10
2019-04-05T04:44:02.293Z,18.67
2019-04-05T04:46:36.038Z,18.83
2019-04-05T04:49:08.191Z,19.63
2019-04-05T04:51:40.461Z,18.83
2019-04-05T04:54:14.542Z,19.33
2019-04-05T04:56:48.033Z,19.53
2019-04-05T04:59:24.581Z,18.90
2019-04-05T05:01:59.686Z,18.27
2019-04-05T05:04:33.534Z,18.90
2019-04-05T05:07:05.829Z,17.93
2019-04-05T05:09:39.489Z,19.53
2019-04-05T05:12:11.298Z,19.17
2019-04-05T05:18:08.463Z,18.40
2019-04-05T05:20:46.858Z,19.50
2019-04-05T05:23:18.757Z,18.43
2019-04-05T05:25:51.083Z,18.57
2019-04-05T05:28:23.682Z,18.93
2019-04-05T05:31:06.006Z,19.03
2019-04-05T05:33:39.504Z,18.67
2019-04-05T05:36:13.531Z,18.20
2019-04-05T05:38:45.927Z,18.30
2019-04-05T05:41:18.542Z,18.83
2019-04-05T05:43:51.593Z,19.40
2019-04-05T05:46:23.593Z,18.47
2019-04-05T05:48:55.475Z,17.77
2019-04-05T05:51:27.922Z,17.17
2019-04-05T05:53:59.841Z,17.53
2019-04-05T05:56:31.767Z,19.03
2019-04-05T05:59:03.621Z,18.33
2019-04-05T06:01:36.013Z,18.57
2019-04-05T06:04:12.697Z,18.13
2019-04-05T06:06:43.866Z,19.33
2019-04-05T06:09:15.856Z,19.03
2019-04-05T06:11:47.834Z,18.03
2019-04-05T06:14:19.775Z,18.00
2019-04-05T06:16:51.690Z,18.77
2019-04-05T06:19:23.630Z,18.53
2019-04-05T06:21:55.536Z,19.03
2019-04-05T06:24:28.237Z,18.03
2019-04-05T06:27:00.670Z,17.73
2019-04-05T06:29:33.086Z,18.00
2019-04-05T06:32:05.699Z,19.00
2019-04-05T06:34:37.605Z,18.27
2019-04-05T06:37:10.063Z,18.20
2019-04-05T06:39:41.914Z,17.67
2019-04-05T06:42:14.706Z,18.47
2019-04-05T06:44:47.439Z,17.77
2019-04-05T06:47:19.801Z,17.87
2019-04-05T06:49:52.242Z,17.13
2019-04-05T06:52:24.247Z,17.23
2019-04-05T06:54:56.135Z,17.00
2019-04-05T06:57:28.114Z,18.53
2019-04-05T07:00:03.873Z,17.63
2019-04-05T07:02:37.452Z,17.93
2019-04-05T07:05:10.138Z,17.90
2019-04-05T07:07:42.130Z,17.67
2019-04-05T07:10:13.901Z,17.10
2019-04-05T07:12:46.303Z,17.27
2019-04-05T07:15:18.177Z,16.13
2019-04-05T07:17:50.046Z,16.67
2019-04-05T07:20:23.767Z,17.07
2019-04-05T07:22:56.369Z,18.17
2019-04-05T07:25:29.559Z,18.30
2019-04-05T07:28:02.542Z,17.73
2019-04-05T07:30:34.458Z,16.77
2019-04-05T07:33:06.851Z,16.37
2019-04-05T07:35:39.397Z,15.93
2019-04-05T07:38:11.141Z,17.47
2019-04-05T07:40:43.570Z,16.57
2019-04-05T07:43:16.034Z,15.97
2019-04-05T07:45:47.905Z,17.10
2019-04-05T07:48:22.387Z,16.37
2019-04-05T07:50:54.312Z,18.40
2019-04-05T07:53:26.257Z,17.20
2019-04-05T07:55:58.116Z,16.37
2019-04-05T07:58:30.068Z,17.60
2019-04-05T08:01:05.720Z,16.60
2019-04-05T08:03:38.233Z,15.73
2019-04-05T08:06:11.721Z,15.90
2019-04-05T08:08:58.872Z,17.10
2019-04-05T08:11:31.334Z,15.70
2019-04-05T08:14:03.692Z,16.67
2019-04-05T08:16:36.119Z,17.70
2019-04-05T08:19:08.019Z,17.30
2019-04-05T08:21:40.392Z,17.47
2019-04-05T08:24:12.297Z,18.07
2019-04-05T08:26:46.776Z,21.13
2019-04-05T08:29:20.261Z,20.30
2019-04-05T08:31:52.227Z,19.80
2019-04-05T08:34:24.604Z,18.70
2019-04-05T08:36:56.967Z,18.27
2019-04-05T08:39:28.776Z,17.97
2019-04-05T08:42:01.838Z,18.07
2019-04-05T08:44:33.667Z,17.27
2019-04-05T08:47:06.725Z,17.03
2019-04-05T08:49:38.577Z,17.80
2019-04-05T08:52:11.012Z,16.87
2019-04-05T08:54:43.804Z,16.97
2019-04-05T08:57:15.572Z,15.60
2019-04-05T08:59:47.930Z,14.17
2019-04-05T09:02:20.812Z,14.70
2019-04-05T09:04:53.182Z,13.90
2019-04-05T09:07:26.149Z,14.00
2019-04-05T09:09:57.990Z,13.23
2019-04-05T09:12:30.748Z,14.30
2019-04-05T09:15:03.220Z,14.40
2019-04-05T09:17:35.168Z,15.40
2019-04-05T09:20:07.776Z,14.93
2019-04-05T09:22:40.150Z,14.20
2019-04-05T09:25:12.070Z,13.33
2019-04-05T09:27:44.402Z,13.13
2019-04-05T09:30:17.758Z,13.00
2019-04-05T09:32:50.167Z,11.27
2019-04-05T09:35:22.384Z,13.10
2019-04-05T09:37:54.972Z,13.27
2019-04-05T09:40:28.171Z,12.00
2019-04-05T09:43:00.826Z,12.17
2019-04-05T09:45:34.546Z,12.50
2019-04-05T09:48:09.823Z,11.60
2019-04-05T09:50:42.651Z,12.87
2019-04-05T09:53:15.824Z,11.60
2019-04-05T09:55:49.301Z,11.57
2019-04-05T09:58:21.390Z,10.77
2019-04-05T10:00:53.593Z,10.03
2019-04-05T10:03:25.938Z,10.27
2019-04-05T10:05:59.426Z,11.10
2019-04-05T10:08:34.298Z,10.93
2019-04-05T10:11:09.263Z,11.37
2019-04-05T10:13:41.275Z,11.37
2019-04-05T10:16:13.346Z,11.43
2019-04-05T10:18:45.912Z,11.87
2019-04-05T10:21:18.626Z,11.87
2019-04-05T10:23:53.174Z,11.33
2019-04-05T10:26:27.906Z,11.27
2019-04-05T10:29:00.445Z,11.23
2019-04-05T10:31:34.060Z,10.90
2019-04-05T10:34:07.970Z,12.03
2019-04-05T10:36:40.320Z,11.13
2019-04-05T10:39:13.918Z,11.57
2019-04-05T10:41:48.159Z,11.40
2019-04-05T10:44:22.150Z,11.53
2019-04-05T10:46:54.664Z,10.87
2019-04-05T10:49:27.731Z,11.90
2019-04-05T10:52:00.919Z,10.40
2019-04-05T10:54:34.028Z,12.13
2019-04-05T10:57:07.447Z,11.57
2019-04-05T10:59:39.744Z,11.20
2019-04-05T11:02:11.738Z,12.67
2019-04-05T11:04:44.872Z,11.47
2019-04-05T11:07:16.847Z,11.10
2019-04-05T11:09:49.360Z,11.73
2019-04-05T11:12:23.583Z,11.40
2019-04-05T11:14:58.821Z,11.33
2019-04-05T11:17:31.735Z,11.53
2019-04-05T11:20:20.159Z,11.37
2019-04-05T11:22:38.300Z,11.17
2019-04-05T11:25:10.924Z,12.10
2019-04-05T11:27:47.492Z,11.67
2019-04-05T11:30:57.304Z,12.70
2019-04-05T11:33:32.614Z,11.80
2019-04-05T11:36:06.776Z,12.10
2019-04-05T11:38:41.192Z,11.33
2019-04-05T11:41:14.603Z,11.57
2019-04-05T11:43:48.837Z,10.93
2019-04-05T11:46:22.579Z,11.57
2019-04-05T11:48:56.284Z,10.97
2019-04-05T11:51:28.043Z,11.97
2019-04-05T11:54:00.764Z,11.77
2019-04-05T11:56:32.905Z,11.27
2019-04-05T11:59:09.056Z,11.10
2019-04-05T12:01:47.288Z,11.43
2019-04-05T12:04:20.541Z,11.33
2019-04-05T12:06:52.968Z,11.10
2019-04-05T12:09:25.522Z,12.10
2019-04-05T12:11:59.608Z,11.70
2019-04-05T12:14:36.360Z,11.77
2019-04-05T12:17:09.706Z,12.50
2019-04-05T12:19:41.506Z,12.40
2019-04-05T12:22:13.690Z,11.90
2019-04-05T12:24:47.660Z,11.97
2019-04-05T12:27:21.186Z,11.83
2019-04-05T12:29:53.638Z,11.30
2019-04-05T12:32:34.644Z,12.03
2019-04-05T12:35:03.979Z,11.63
2019-04-05T12:37:49.413Z,11.10
2019-04-05T12:40:14.830Z,10.67
2019-04-05T12:42:47.025Z,10.50
2019-04-05T12:45:20.464Z,11.67
2019-04-05T12:47:52.731Z,11.83
2019-04-05T12:50:25.372Z,11.40
2019-04-05T12:52:58.363Z,11.13
2019-04-05T12:55:30.734Z,11.73
2019-04-05T12:58:02.852Z,11.53
2019-04-05T13:00:38.907Z,12.00
2019-04-05T13:03:13.886Z,11.33
2019-04-05T13:05:47.178Z,11.33
2019-04-05T13:08:20.871Z,11.03
2019-04-05T13:10:55.509Z,12.57
2019-04-05T13:13:27.721Z,11.07
2019-04-05T13:16:00.157Z,12.10
2019-04-05T13:18:33.436Z,12.00
2019-04-05T13:21:14.345Z,11.03
2019-04-05T13:23:40.311Z,10.97
2019-04-05T13:26:14.184Z,10.60
2019-04-05T13:28:48.607Z,11.07
2019-04-05T13:31:22.333Z,10.13
2019-04-05T13:33:55.472Z,11.30
2019-04-05T13:36:28.940Z,10.53
2019-04-05T13:39:01.073Z,11.77
2019-04-05T13:41:35.024Z,11.50
2019-04-05T13:44:07.478Z,11.23
2019-04-05T13:46:42.694Z,11.30
2019-04-05T13:49:15.417Z,10.60
2019-04-05T13:51:48.640Z,10.53
2019-04-05T13:54:21.414Z,11.20
2019-04-05T13:56:57.435Z,11.37
2019-04-05T13:59:33.132Z,11.87
2019-04-05T14:02:10.991Z,11.10
2019-04-05T14:04:44.037Z,11.50
2019-04-05T14:07:17.189Z,11.70
2019-04-05T14:09:49.531Z,12.00
2019-04-05T14:12:22.128Z,10.87
2019-04-05T14:14:55.599Z,11.40
2019-04-05T14:17:27.827Z,11.13
2019-04-05T14:20:00.272Z,12.13
2019-04-05T14:22:33.278Z,11.50
2019-04-05T14:25:06.532Z,11.30
2019-04-05T14:27:39.389Z,11.03
2019-04-05T14:30:13.722Z,11.47
2019-04-05T14:32:50.553Z,11.20
2019-04-05T14:35:24.545Z,11.13
2019-04-05T14:37:56.531Z,11.10
2019-04-05T14:40:32.846Z,11.23
2019-04-05T14:43:03.490Z,10.67
2019-04-05T14:45:37.712Z,11.20
2019-04-05T14:48:12.215Z,11.17
2019-04-05T14:50:44.087Z,11.50
2019-04-05T14:53:16.654Z,11.87
2019-04-05T14:55:49.559Z,11.63
2019-04-05T14:58:21.709Z,11.70
2019-04-05T15:00:54.064Z,11.37
2019-04-05T15:03:27.347Z,10.73
2019-04-05T15:05:59.430Z,12.77
2019-04-05T15:08:32.502Z,11.60
2019-04-05T15:11:10.893Z,11.77
2019-04-05T15:13:42.258Z,12.83
2019-04-05T15:16:16.733Z,10.60
2019-04-05T15:18:56.933Z,11.47
2019-04-05T15:21:34.478Z,12.03
2019-04-05T15:24:08.789Z,12.23
2019-04-05T15:26:41.830Z,11.03
2019-04-05T15:29:14.814Z,12.07
2019-04-05T15:31:46.945Z,12.03
2019-04-05T15:34:18.954Z,12.00
2019-04-05T15:36:52.977Z,12.37
2019-04-05T15:39:28.595Z,12.53
2019-04-05T15:42:01.473Z,12.20
2019-04-05T15:44:33.429Z,12.00
2019-04-05T15:47:06.881Z,11.93
2019-04-05T15:49:38.942Z,11.63
2019-04-05T15:52:18.607Z,11.87
2019-04-05T15:54:47.222Z,12.13
2019-04-05T15:57:20.424Z,12.17
2019-04-05T15:59:53.495Z,12.50
2019-04-05T16:02:27.002Z,11.70
2019-04-05T16:04:59.883Z,10.87
2019-04-05T16:07:33.402Z,12.27
2019-04-05T16:10:08.826Z,11.90
2019-04-05T16:12:40.709Z,12.03
2019-04-05T16:15:14.273Z,12.53
2019-04-05T16:17:47.623Z,12.87
2019-04-05T16:20:21.956Z,12.30
2019-04-05T16:22:55.002Z,11.27
2019-04-05T16:25:27.824Z,16.40
2019-04-05T16:28:00.083Z,12.03
2019-04-05T16:30:32.203Z,12.80
2019-04-05T16:33:04.882Z,11.80
2019-04-05T16:35:38.846Z,12.10
2019-04-05T16:38:14.082Z,11.13
2019-04-05T16:40:46.989Z,12.10
2019-04-05T16:43:18.829Z,11.47
2019-04-05T16:45:51.942Z,13.00
2019-04-05T16:48:23.875Z,12.00
2019-04-05T16:50:56.049Z,12.07
2019-04-05T16:53:28.755Z,11.87
2019-04-05T16:56:02.217Z,12.57
2019-04-05T16:58:34.061Z,12.63
2019-04-05T17:01:06.065Z,12.47
2019-04-05T17:03:37.945Z,12.10
2019-04-05T17:06:09.858Z,12.77
2019-04-05T17:08:42.149Z,12.37
2019-04-05T17:11:15.426Z,12.07
2019-04-05T17:13:48.320Z,11.97
2019-04-05T17:16:20.755Z,12.30
2019-04-05T17:18:53.530Z,13.10
2019-04-05T17:21:25.930Z,12.63
2019-04-05T17:23:57.771Z,12.80
2019-04-05T17:26:30.018Z,13.03
2019-04-05T17:29:02.454Z,13.07
2019-04-05T17:31:34.367Z,13.37
2019-04-05T17:34:06.303Z,13.60
2019-04-05T17:36:38.181Z,13.47
2019-04-05T17:39:10.066Z,13.37
2019-04-05T17:41:43.404Z,13.37
2019-04-05T17:44:15.766Z,13.50
2019-04-05T17:46:48.580Z,12.93
2019-04-05T17:49:21.441Z,13.97
2019-04-05T17:51:53.774Z,13.27
2019-04-05T17:54:25.666Z,13.73
2019-04-05T17:56:58.138Z,13.27
2019-04-05T17:59:30.294Z,13.07
2019-04-05T18:02:02.688Z,14.27
2019-04-05T18:04:34.660Z,13.13
2019-04-05T18:07:07.121Z,13.03
2019-04-05T18:09:40.111Z,13.10
2019-04-05T18:12:12.438Z,12.70
2019-04-05T18:14:45.311Z,13.30
2019-04-05T18:17:18.116Z,13.70
2019-04-05T18:19:51.459Z,13.30
2019-04-05T18:22:23.827Z,13.33
2019-04-05T18:24:55.867Z,13.70
2019-04-05T18:27:27.710Z,15.07
2019-04-05T18:30:01.193Z,14.13
2019-04-05T18:32:34.778Z,14.53
2019-04-05T18:35:07.067Z,13.87
2019-04-05T18:37:43.151Z,14.40
2019-04-05T18:40:15.930Z,14.93
2019-04-05T18:42:47.873Z,14.03
2019-04-05T18:45:20.764Z,14.30
2019-04-05T18:47:52.664Z,14.37
2019-04-05T18:50:40.693Z,14.83
2019-04-05T18:53:13.446Z,14.67
2019-04-05T18:55:52.274Z,15.37
2019-04-05T18:58:24.737Z,14.03
2019-04-05T19:00:57.646Z,15.13
2019-04-05T19:03:30.017Z,16.03
2019-04-05T19:06:01.865Z,14.97
2019-04-05T19:08:39.779Z,14.33
2019-04-05T19:11:08.191Z,16.37
2019-04-05T19:13:41.456Z,16.17
2019-04-05T19:16:30.818Z,16.07
2019-04-05T19:19:03.756Z,15.23
2019-04-05T19:21:36.022Z,14.97
2019-04-05T19:24:07.949Z,15.40
2019-04-05T19:26:40.571Z,14.87
2019-04-05T19:29:12.816Z,15.07
2019-04-05T19:49:54.375Z,16.93
2019-04-05T19:52:26.641Z,16.57
2019-04-05T19:54:58.523Z,16.87
2019-04-05T19:57:30.825Z,17.27
2019-04-05T20:00:03.087Z,17.60
2019-04-05T20:02:35.114Z,17.43
2019-04-05T20:05:07.994Z,17.00
2019-04-05T20:07:40.379Z,17.67
2019-04-05T20:10:12.938Z,17.57
2019-04-05T20:12:45.858Z,17.47
2019-04-05T20:15:18.350Z,18.10
2019-04-05T20:17:50.151Z,18.23
2019-04-05T20:20:22.455Z,18.43
2019-04-05T20:22:54.376Z,16.87
2019-04-05T20:25:27.748Z,18.63
2019-04-05T20:28:00.494Z,18.23
2019-04-05T20:30:33.303Z,17.10
2019-04-05T20:33:05.899Z,17.03
2019-04-05T20:35:38.438Z,18.77
2019-04-05T20:38:11.722Z,18.03
2019-04-05T20:40:44.134Z,19.27
2019-04-05T20:43:15.982Z,17.37
2019-04-05T20:45:47.980Z,16.63
2019-04-05T20:48:21.981Z,18.73
2019-04-05T20:50:54.716Z,18.53
2019-04-05T20:53:26.967Z,17.90
2019-04-05T20:55:59.459Z,17.93
2019-04-05T20:58:32.702Z,18.53
2019-04-05T21:01:05.086Z,17.37
2019-04-05T21:03:37.347Z,18.17
2019-04-05T21:06:09.370Z,17.57
2019-04-05T21:08:42.731Z,18.17
2019-04-05T21:11:15.061Z,17.17
2019-04-05T21:13:47.449Z,17.77
2019-04-05T21:16:19.423Z,17.93
2019-04-05T21:18:51.716Z,18.87
2019-04-05T21:21:24.522Z,17.27
2019-04-05T21:23:56.850Z,17.53
2019-04-05T21:26:28.760Z,16.53
2019-04-05T21:29:00.637Z,15.90
2019-04-05T21:31:34.465Z,16.27
2019-04-05T21:34:06.342Z,16.07
2019-04-05T21:36:39.126Z,14.50
2019-04-05T21:39:11.562Z,14.53
2019-04-05T21:41:44.008Z,14.40
2019-04-05T21:44:15.875Z,13.70
2019-04-05T21:46:48.358Z,13.27
2019-04-05T21:49:20.669Z,15.07
2019-04-05T21:51:53.363Z,15.60
2019-04-05T21:54:25.743Z,15.40
2019-04-05T21:56:57.617Z,15.43
2019-04-05T21:59:29.414Z,15.40
2019-04-05T22:02:02.085Z,14.47
2019-04-05T22:04:35.029Z,14.67
2019-04-05T22:07:07.440Z,14.90
2019-04-05T22:09:39.813Z,15.40
2019-04-05T22:12:12.218Z,14.40
2019-04-05T22:14:44.535Z,14.40
2019-04-05T22:17:16.473Z,14.50
2019-04-05T22:19:48.386Z,15.10
2019-04-05T22:22:21.275Z,14.90
2019-04-05T22:24:59.553Z,16.47
2019-04-05T22:27:30.292Z,16.93
2019-04-05T22:30:02.168Z,16.70
2019-04-05T22:32:34.596Z,16.77
2019-04-05T22:35:06.974Z,16.83
2019-04-05T22:37:38.870Z,17.33
2019-04-05T22:40:10.832Z,16.97
2019-04-05T22:42:43.618Z,15.83
2019-04-05T22:45:16.071Z,16.27
2019-04-05T22:47:48.478Z,16.37
2019-04-05T22:50:20.736Z,14.57
2019-04-05T22:52:52.626Z,16.33
2019-04-05T22:55:25.062Z,15.20
2019-04-05T22:57:57.462Z,15.60
2019-04-05T23:00:29.386Z,15.20
2019-04-05T23:03:01.314Z,15.20
2019-04-05T23:05:33.258Z,15.60
2019-04-05T23:08:05.176Z,15.70
2019-04-05T23:10:38.395Z,15.63
2019-04-05T23:13:10.282Z,15.80
2019-04-05T23:15:42.602Z,15.80
2019-04-05T23:18:15.124Z,14.83
2019-04-05T23:20:46.898Z,15.40
2019-04-05T23:23:19.159Z,16.97
2019-04-05T23:25:51.590Z,16.80
2019-04-05T23:28:25.130Z,16.53
2019-04-05T23:30:57.095Z,16.90
2019-04-05T23:33:30.078Z,16.30
2019-04-05T23:36:02.542Z,16.20
2019-04-05T23:38:34.550Z,15.83
2019-04-05T23:41:06.827Z,17.87
2019-04-05T23:43:39.130Z,16.70
2019-04-05T23:46:11.481Z,16.73
2019-04-05T23:48:43.436Z,17.00
2019-04-05T23:51:15.835Z,17.77
2019-04-05T23:53:47.881Z,18.90
2019-04-05T23:56:19.946Z,17.27
2019-04-05T23:58:52.830Z,17.30
